createdAt,value
2019-02-06T00:00:50.903Z,87.00
2019-02-06T00:03:22.491Z,83.67
2019-02-06T00:05:53.733Z,84.33
2019-02-06T00:08:24.011Z,82.90
2019-02-06T00:10:54.083Z,80.07
2019-02-06T00:13:25.472Z,94.97
2019-02-06T00:15:57.797Z,88.53
2019-02-06T00:18:28.720Z,85.83
2019-02-06T00:20:58.781Z,81.93
2019-02-06T00:23:28.932Z,80.63
2019-02-06T00:25:58.875Z,75.10
2019-02-06T00:28:28.895Z,52.13
2019-02-06T00:31:00.343Z,85.27
2019-02-06T00:33:30.474Z,73.40
2019-02-06T00:36:01.023Z,79.23
2019-02-06T00:38:31.203Z,69.87
2019-02-06T00:41:03.250Z,81.93
2019-02-06T00:43:33.382Z,80.77
2019-02-06T00:46:03.955Z,76.77
2019-02-06T00:48:34.130Z,86.77
2019-02-06T00:51:04.255Z,74.20
2019-02-06T00:53:34.322Z,82.60
2019-02-06T00:56:06.032Z,82.57
2019-02-06T00:58:36.123Z,76.93
2019-02-06T01:01:06.994Z,74.40
2019-02-06T01:03:37.455Z,77.60
2019-02-06T01:06:07.782Z,77.07
2019-02-06T01:08:38.642Z,73.17
2019-02-06T01:11:08.834Z,78.50
2019-02-06T01:13:38.829Z,57.53
2019-02-06T01:16:09.165Z,75.70
2019-02-06T01:18:39.374Z,69.53
2019-02-06T01:21:10.980Z,75.23
2019-02-06T01:23:41.195Z,60.17
2019-02-06T01:26:11.424Z,82.47
2019-02-06T01:28:41.502Z,66.73
2019-02-06T01:31:16.646Z,77.37
2019-02-06T01:33:46.741Z,71.97
2019-02-06T01:36:16.779Z,70.83
2019-02-06T01:38:47.383Z,78.37
2019-02-06T01:41:17.328Z,69.03
2019-02-06T01:43:47.296Z,80.80
2019-02-06T01:46:17.515Z,70.90
2019-02-06T01:48:47.550Z,72.23
2019-02-06T01:51:17.591Z,74.17
2019-02-06T01:53:48.890Z,77.93
2019-02-06T01:56:18.900Z,65.13
2019-02-06T01:58:48.791Z,67.37
2019-02-06T02:01:18.864Z,77.20
2019-02-06T02:03:48.936Z,61.10
2019-02-06T02:06:19.135Z,81.83
2019-02-06T02:08:57.167Z,71.03
2019-02-06T02:11:27.284Z,74.20
2019-02-06T02:14:10.720Z,63.70
2019-02-06T02:16:40.775Z,59.90
2019-02-06T02:19:11.945Z,69.57
2019-02-06T02:21:42.053Z,68.67
2019-02-06T02:24:12.010Z,75.67
2019-02-06T02:26:41.955Z,65.03
2019-02-06T02:29:11.950Z,66.73
2019-02-06T02:31:42.504Z,80.90
2019-02-06T02:34:12.477Z,67.17
2019-02-06T02:36:42.541Z,80.07
2019-02-06T02:39:12.634Z,69.90
2019-02-06T02:41:42.695Z,70.93
2019-02-06T02:44:12.812Z,61.57
2019-02-06T02:46:42.896Z,69.10
2019-02-06T02:49:12.889Z,62.40
2019-02-06T02:51:44.593Z,72.40
2019-02-06T02:54:14.627Z,68.97
2019-02-06T02:56:44.695Z,65.90
2019-02-06T02:59:15.028Z,63.50
2019-02-06T03:01:55.383Z,72.97
2019-02-06T03:04:29.736Z,70.13
2019-02-06T03:07:00.014Z,72.93
2019-02-06T03:09:30.050Z,67.77
2019-02-06T03:12:00.215Z,63.43
2019-02-06T03:14:31.213Z,67.33
2019-02-06T03:17:13.725Z,59.03
2019-02-06T03:19:43.793Z,60.90
2019-02-06T03:22:13.856Z,63.43
2019-02-06T03:24:43.756Z,62.47
2019-02-06T03:27:13.756Z,74.43
2019-02-06T03:29:43.782Z,70.23
2019-02-06T03:32:14.872Z,62.57
2019-02-06T03:34:44.840Z,64.40
2019-02-06T03:37:15.235Z,65.07
2019-02-06T03:39:45.161Z,54.83
2019-02-06T03:42:15.179Z,62.90
2019-02-06T03:44:45.316Z,60.97
2019-02-06T03:47:15.601Z,61.03
2019-02-06T03:49:45.603Z,68.40
2019-02-06T03:52:15.927Z,61.97
2019-02-06T03:54:47.116Z,61.63
2019-02-06T03:57:17.633Z,60.67
2019-02-06T03:59:47.551Z,59.93
2019-02-06T04:02:17.616Z,60.30
2019-02-06T04:04:47.810Z,61.30
2019-02-06T04:07:18.027Z,65.10
2019-02-06T04:09:48.293Z,62.80
2019-02-06T04:12:19.849Z,62.40
2019-02-06T04:14:49.857Z,55.90
2019-02-06T04:17:19.872Z,53.77
2019-02-06T04:19:50.600Z,61.07
2019-02-06T04:22:20.658Z,65.77
2019-02-06T04:24:51.676Z,58.00
2019-02-06T04:27:21.989Z,57.17
2019-02-06T04:29:52.055Z,56.57
2019-02-06T04:32:23.459Z,58.90
2019-02-06T04:34:53.756Z,62.60
2019-02-06T04:37:23.872Z,59.63
2019-02-06T04:39:53.988Z,50.67
2019-02-06T04:42:24.127Z,55.90
2019-02-06T04:44:54.177Z,56.50
2019-02-06T04:47:25.636Z,56.33
2019-02-06T04:49:56.814Z,56.60
2019-02-06T04:52:26.776Z,58.20
2019-02-06T04:54:56.688Z,46.70
2019-02-06T04:57:27.922Z,61.10
2019-02-06T04:59:58.769Z,62.00
2019-02-06T05:02:28.861Z,55.03
2019-02-06T05:04:58.868Z,64.17
2019-02-06T05:07:28.806Z,57.47
2019-02-06T05:09:58.805Z,56.23
2019-02-06T05:12:28.802Z,53.10
2019-02-06T05:14:58.730Z,58.70
2019-02-06T05:17:28.779Z,54.20
2019-02-06T05:19:59.487Z,58.17
2019-02-06T05:22:31.198Z,49.07
2019-02-06T05:25:01.179Z,56.23
2019-02-06T05:27:32.470Z,52.23
2019-02-06T05:30:02.901Z,53.23
2019-02-06T05:32:33.111Z,51.60
2019-02-06T05:35:03.291Z,53.83
2019-02-06T05:37:33.266Z,59.07
2019-02-06T05:40:03.294Z,58.07
2019-02-06T05:42:35.030Z,56.30
2019-02-06T05:45:06.751Z,56.03
2019-02-06T05:47:36.806Z,48.63
2019-02-06T05:50:08.031Z,57.73
2019-02-06T05:52:37.992Z,53.10
2019-02-06T05:55:08.156Z,53.07
2019-02-06T05:57:38.203Z,50.27
2019-02-06T06:00:12.690Z,54.47
2019-02-06T06:02:42.816Z,58.57
2019-02-06T06:05:13.045Z,58.43
2019-02-06T06:07:45.462Z,58.97
2019-02-06T06:10:16.122Z,58.60
2019-02-06T06:12:46.563Z,54.20
2019-02-06T06:15:17.717Z,54.77
2019-02-06T06:17:47.910Z,58.90
2019-02-06T06:20:18.236Z,56.17
2019-02-06T06:22:48.276Z,55.93
2019-02-06T06:25:21.450Z,51.30
2019-02-06T06:27:51.775Z,57.13
2019-02-06T06:30:21.849Z,56.63
2019-02-06T06:32:52.013Z,46.13
2019-02-06T06:35:22.126Z,54.50
2019-02-06T06:37:59.703Z,47.20
2019-02-06T06:40:25.905Z,49.27
2019-02-06T06:42:56.048Z,55.70
2019-02-06T06:45:26.445Z,42.23
2019-02-06T06:47:56.634Z,55.00
2019-02-06T06:50:26.876Z,54.93
2019-02-06T06:52:57.043Z,52.53
2019-02-06T06:55:27.781Z,49.73
2019-02-06T06:57:57.782Z,49.30
2019-02-06T07:00:30.012Z,57.53
2019-02-06T07:03:00.121Z,45.93
2019-02-06T07:05:30.277Z,54.47
2019-02-06T07:08:09.110Z,52.93
2019-02-06T07:10:32.289Z,55.70
2019-02-06T07:13:03.430Z,52.83
2019-02-06T07:15:34.918Z,47.07
2019-02-06T07:18:05.267Z,48.83
2019-02-06T07:20:36.828Z,59.23
2019-02-06T07:23:08.123Z,50.17
2019-02-06T07:25:38.497Z,55.77
2019-02-06T07:28:08.812Z,45.40
2019-02-06T07:30:39.087Z,52.43
2019-02-06T07:33:09.491Z,51.27
2019-02-06T07:35:40.062Z,41.63
2019-02-06T07:38:22.345Z,39.67
2019-02-06T07:40:55.206Z,51.40
2019-02-06T07:43:26.429Z,54.70
2019-02-06T07:45:56.682Z,48.20
2019-02-06T07:48:26.915Z,55.33
2019-02-06T07:50:57.113Z,50.70
2019-02-06T07:53:27.515Z,44.70
2019-02-06T07:55:57.700Z,55.30
2019-02-06T07:58:27.834Z,50.20
2019-02-06T08:00:57.846Z,44.97
2019-02-06T08:03:29.078Z,48.37
2019-02-06T08:05:59.561Z,51.63
2019-02-06T08:08:36.072Z,53.90
2019-02-06T08:11:03.203Z,45.10
2019-02-06T08:13:34.957Z,46.53
2019-02-06T08:16:07.268Z,48.07
2019-02-06T08:18:37.037Z,53.37
2019-02-06T08:21:07.148Z,47.93
2019-02-06T08:23:37.168Z,49.03
2019-02-06T08:26:07.209Z,51.20
2019-02-06T08:28:37.244Z,52.37
2019-02-06T08:31:07.385Z,52.67
2019-02-06T08:33:37.582Z,50.77
2019-02-06T08:36:07.646Z,48.50
2019-02-06T08:38:47.358Z,46.87
2019-02-06T08:41:09.596Z,45.77
2019-02-06T08:43:45.650Z,47.13
2019-02-06T08:46:15.938Z,49.25
2019-02-06T08:48:46.697Z,50.40
2019-02-06T08:51:16.957Z,46.18
2019-02-06T08:53:48.106Z,42.57
2019-02-06T08:56:18.511Z,52.97
2019-02-06T08:58:48.688Z,43.50
2019-02-06T09:01:18.989Z,43.03
2019-02-06T09:03:48.994Z,42.97
2019-02-06T09:06:20.167Z,44.57
2019-02-06T09:08:59.181Z,41.00
2019-02-06T09:11:21.957Z,45.20
2019-02-06T09:13:52.050Z,47.00
2019-02-06T09:16:22.148Z,43.20
2019-02-06T09:18:52.354Z,48.70
2019-02-06T09:21:22.450Z,42.70
2019-02-06T09:23:53.017Z,40.93
2019-02-06T09:26:23.169Z,43.87
2019-02-06T09:28:53.462Z,46.40
2019-02-06T09:31:24.103Z,41.68
2019-02-06T09:33:54.072Z,43.20
2019-02-06T09:36:24.089Z,38.92
2019-02-06T09:38:54.447Z,40.20
2019-02-06T09:41:24.418Z,41.85
2019-02-06T09:43:57.029Z,47.77
2019-02-06T09:46:27.268Z,46.02
2019-02-06T09:48:57.367Z,37.42
2019-02-06T09:51:27.391Z,39.07
2019-02-06T09:53:57.463Z,41.87
2019-02-06T09:56:27.580Z,37.38
2019-02-06T09:58:57.807Z,64.65
2019-02-06T10:01:27.945Z,46.18
2019-02-06T10:03:58.218Z,45.08
2019-02-06T10:06:30.080Z,36.95
2019-02-06T10:09:00.077Z,42.20
2019-02-06T10:11:30.199Z,38.83
2019-02-06T10:14:00.390Z,34.57
2019-02-06T10:16:30.509Z,30.82
2019-02-06T10:19:00.719Z,37.35
2019-02-06T10:21:31.525Z,35.05
2019-02-06T10:24:02.353Z,35.35
2019-02-06T10:26:32.513Z,40.67
2019-02-06T10:29:02.697Z,33.75
2019-02-06T10:31:33.052Z,42.98
2019-02-06T10:34:03.228Z,38.92
2019-02-06T10:36:33.382Z,42.20
2019-02-06T10:39:05.309Z,39.98
2019-02-06T10:41:35.697Z,34.00
2019-02-06T10:44:07.382Z,33.28
2019-02-06T10:46:37.571Z,35.95
2019-02-06T10:49:08.010Z,37.05
2019-02-06T10:51:38.357Z,35.90
2019-02-06T10:54:08.517Z,35.58
2019-02-06T10:56:38.691Z,38.43
2019-02-06T10:59:08.970Z,36.08
2019-02-06T11:01:38.951Z,41.57
2019-02-06T11:04:21.415Z,33.20
2019-02-06T11:06:51.615Z,34.70
2019-02-06T11:09:23.157Z,46.65
2019-02-06T11:11:53.266Z,34.58
2019-02-06T11:14:23.446Z,33.92
2019-02-06T11:16:53.697Z,33.18
2019-02-06T11:19:23.912Z,31.70
2019-02-06T11:21:53.970Z,30.23
2019-02-06T11:24:26.725Z,35.65
2019-02-06T11:26:55.919Z,31.85
2019-02-06T11:29:26.265Z,39.25
2019-02-06T11:31:56.417Z,36.73
2019-02-06T11:34:26.472Z,39.33
2019-02-06T11:36:56.556Z,34.98
2019-02-06T11:39:26.601Z,32.23
2019-02-06T11:41:56.713Z,33.02
2019-02-06T11:44:26.801Z,36.77
2019-02-06T11:46:56.856Z,37.65
2019-02-06T11:49:32.812Z,35.23
2019-02-06T11:52:02.924Z,29.77
2019-02-06T11:54:33.051Z,29.90
2019-02-06T11:57:03.314Z,29.92
2019-02-06T11:59:33.505Z,28.47
2019-02-06T12:02:03.619Z,33.02
2019-02-06T12:04:33.535Z,27.52
2019-02-06T12:07:05.105Z,32.08
2019-02-06T12:09:35.370Z,33.40
2019-02-06T12:12:05.844Z,35.23
2019-02-06T12:14:35.984Z,34.83
2019-02-06T12:17:06.038Z,32.13
2019-02-06T12:19:36.305Z,33.73
2019-02-06T12:22:06.366Z,31.07
2019-02-06T12:24:36.892Z,35.03
2019-02-06T12:27:07.135Z,25.35
2019-02-06T12:29:37.237Z,32.85
2019-02-06T12:32:07.292Z,28.92
2019-02-06T12:34:37.357Z,32.17
2019-02-06T12:37:07.564Z,27.05
2019-02-06T12:39:37.963Z,34.63
2019-02-06T12:42:08.220Z,29.23
2019-02-06T12:44:38.288Z,29.85
2019-02-06T12:47:09.190Z,36.30
2019-02-06T12:49:41.297Z,28.57
2019-02-06T12:52:11.585Z,33.42
2019-02-06T12:54:41.776Z,28.52
2019-02-06T12:57:12.115Z,28.47
2019-02-06T12:59:42.347Z,27.27
2019-02-06T13:02:12.616Z,27.65
2019-02-06T13:04:42.770Z,27.85
2019-02-06T13:07:13.197Z,28.32
2019-02-06T13:09:43.290Z,23.47
2019-02-06T13:12:13.489Z,21.95
2019-02-06T13:14:43.636Z,20.37
2019-02-06T13:17:13.955Z,27.37
2019-02-06T13:19:44.237Z,26.05
2019-02-06T13:22:14.448Z,22.50
2019-02-06T13:24:45.142Z,25.15
2019-02-06T13:27:15.544Z,23.18
2019-02-06T13:29:45.607Z,23.55
2019-02-06T13:32:15.980Z,24.90
2019-02-06T13:34:47.256Z,29.27
2019-02-06T13:37:17.511Z,27.15
2019-02-06T13:39:47.606Z,27.22
2019-02-06T13:42:18.083Z,42.60
2019-02-06T13:44:48.258Z,26.90
2019-02-06T13:47:18.449Z,26.02
2019-02-06T13:49:48.613Z,28.77
2019-02-06T13:52:18.937Z,27.45
2019-02-06T13:54:48.922Z,22.07
2019-02-06T13:57:19.110Z,21.12
2019-02-06T13:59:50.376Z,30.92
2019-02-06T14:02:20.579Z,23.30
2019-02-06T14:04:51.225Z,25.02
2019-02-06T14:07:22.510Z,24.27
2019-02-06T14:09:52.846Z,25.70
2019-02-06T14:12:24.599Z,23.70
2019-02-06T14:14:55.987Z,26.90
2019-02-06T14:17:28.145Z,26.67
2019-02-06T14:20:01.052Z,26.90
2019-02-06T14:22:31.346Z,30.55
2019-02-06T14:25:27.716Z,30.30
2019-02-06T14:28:44.922Z,32.83
2019-02-06T14:31:32.493Z,26.90
2019-02-06T14:34:22.415Z,26.90
2019-02-06T14:37:16.398Z,27.50
2019-02-06T14:40:28.061Z,34.83
2019-02-06T14:43:37.991Z,33.02
2019-02-06T14:46:48.225Z,30.43
2019-02-06T14:49:30.716Z,76.37
2019-02-06T14:52:27.946Z,114.60
2019-02-06T14:55:36.547Z,60.15
2019-02-06T14:58:46.229Z,42.58
2019-02-06T15:01:47.896Z,37.40
2019-02-06T15:04:56.598Z,37.85
2019-02-06T15:08:06.118Z,34.75
2019-02-06T15:10:44.896Z,33.17
2019-02-06T15:13:43.699Z,33.33
2019-02-06T15:16:52.197Z,40.40
2019-02-06T15:20:01.183Z,25.88
2019-02-06T15:22:57.849Z,30.27
2019-02-06T15:25:43.106Z,29.30
2019-02-06T15:28:38.226Z,28.73
2019-02-06T15:31:33.198Z,27.23
2019-02-06T15:34:34.078Z,25.57
2019-02-06T15:37:14.796Z,24.65
2019-02-06T15:40:23.233Z,30.60
2019-02-06T15:43:07.428Z,26.60
2019-02-06T15:46:07.945Z,29.45
2019-02-06T15:49:07.137Z,27.23
2019-02-06T15:52:01.118Z,29.65
2019-02-06T15:54:56.518Z,33.38
2019-02-06T15:57:55.686Z,31.50
2019-02-06T16:00:50.617Z,41.90
2019-02-06T16:04:12.377Z,45.48
2019-02-06T16:07:12.628Z,46.00
2019-02-06T16:10:02.029Z,49.60
2019-02-06T16:13:07.957Z,45.57
2019-02-06T16:16:16.346Z,38.15
2019-02-06T16:19:01.972Z,42.13
2019-02-06T16:21:53.017Z,28.57
2019-02-06T16:24:46.884Z,36.40
2019-02-06T16:27:44.179Z,34.00
2019-02-06T16:30:47.837Z,38.97
2019-02-06T16:33:57.214Z,37.10
2019-02-06T16:36:56.472Z,35.03
2019-02-06T16:39:53.984Z,39.03
2019-02-06T16:43:02.445Z,40.33
2019-02-06T16:46:00.096Z,42.50
2019-02-06T16:49:09.917Z,46.13
2019-02-06T16:51:58.678Z,61.83
2019-02-06T16:55:07.190Z,84.93
2019-02-06T16:58:05.869Z,80.53
2019-02-06T17:00:57.161Z,92.27
2019-02-06T17:03:52.653Z,99.60
2019-02-06T17:06:48.454Z,103.63
2019-02-06T17:09:44.204Z,107.63
2019-02-06T17:12:43.909Z,111.80
2019-02-06T17:15:45.436Z,98.70
2019-02-06T17:18:41.142Z,88.77
2019-02-06T17:21:35.353Z,92.73
2019-02-06T17:24:43.736Z,81.93
2019-02-06T17:27:45.866Z,103.17
2019-02-06T17:30:43.728Z,105.17
2019-02-06T17:33:45.275Z,92.47
2019-02-06T17:36:48.685Z,87.30
2019-02-06T17:39:55.148Z,86.20
2019-02-06T17:43:11.848Z,77.87
2019-02-06T17:46:16.157Z,87.90
2019-02-06T17:49:17.038Z,82.13
2019-02-06T17:52:29.190Z,89.30
2019-02-06T17:55:17.869Z,93.63
2019-02-06T17:57:50.036Z,141.93
2019-02-06T18:00:44.775Z,141.53
2019-02-06T18:03:17.934Z,150.63
2019-02-06T18:05:49.065Z,198.70
2019-02-06T18:08:19.663Z,242.37
2019-02-06T18:10:53.505Z,205.73
2019-02-06T18:13:23.705Z,157.17
2019-02-06T18:15:53.891Z,148.83
2019-02-06T18:18:51.043Z,155.13
2019-02-06T18:21:21.257Z,144.70
2019-02-06T18:23:55.645Z,130.67
2019-02-06T18:26:25.979Z,147.80
2019-02-06T18:28:56.096Z,135.07
2019-02-06T18:31:26.282Z,115.30
2019-02-06T18:33:56.502Z,113.80
2019-02-06T18:36:26.733Z,117.50
2019-02-06T18:38:57.257Z,124.30
2019-02-06T18:41:27.398Z,143.10
2019-02-06T18:43:57.976Z,146.83
2019-02-06T18:46:28.306Z,134.63
2019-02-06T18:48:58.556Z,138.73
2019-02-06T18:51:28.980Z,136.83
2019-02-06T18:53:59.129Z,119.60
2019-02-06T18:56:29.568Z,115.80
2019-02-06T18:58:59.851Z,112.57
2019-02-06T19:01:30.588Z,108.43
2019-02-06T19:04:02.097Z,111.73
2019-02-06T19:06:32.576Z,119.37
2019-02-06T19:09:02.883Z,121.50
2019-02-06T19:11:35.037Z,111.50
2019-02-06T19:14:05.798Z,111.40
2019-02-06T19:16:36.623Z,111.37
2019-02-06T19:19:07.803Z,109.03
2019-02-06T19:21:44.708Z,108.20
2019-02-06T19:24:27.724Z,106.00
2019-02-06T19:26:59.540Z,102.93
2019-02-06T19:29:29.925Z,97.40
2019-02-06T19:32:00.216Z,105.13
2019-02-06T19:34:30.541Z,101.83
2019-02-06T19:37:00.698Z,99.33
2019-02-06T19:39:36.256Z,184.80
2019-02-06T19:42:06.675Z,147.37
2019-02-06T19:44:37.199Z,150.67
2019-02-06T19:47:30.042Z,137.60
2019-02-06T19:49:58.301Z,188.60
2019-02-06T19:52:30.718Z,188.80
2019-02-06T19:55:04.414Z,170.47
2019-02-06T19:57:34.741Z,174.97
2019-02-06T20:00:14.162Z,192.77
2019-02-06T20:02:44.940Z,186.33
2019-02-06T20:05:17.306Z,192.07
2019-02-06T20:07:49.534Z,177.37
2019-02-06T20:10:22.694Z,168.33
2019-02-06T20:12:53.161Z,158.43
2019-02-06T20:15:33.597Z,154.93
2019-02-06T20:18:11.323Z,146.87
2019-02-06T20:20:44.719Z,158.97
2019-02-06T20:23:24.019Z,142.93
2019-02-06T20:26:01.076Z,153.63
2019-02-06T20:28:35.090Z,151.03
2019-02-06T20:31:11.814Z,161.70
2019-02-06T20:33:49.012Z,161.07
2019-02-06T20:36:29.265Z,145.40
2019-02-06T20:39:02.682Z,126.50
2019-02-06T20:41:39.604Z,130.17
2019-02-06T20:44:10.305Z,122.87
2019-02-06T20:46:42.206Z,124.10
2019-02-06T20:49:15.140Z,127.00
2019-02-06T20:52:24.352Z,104.80
2019-02-06T20:55:49.062Z,105.83
2019-02-06T20:59:35.470Z,118.40
2019-02-06T21:02:29.472Z,109.13
2019-02-06T21:05:05.169Z,111.90
2019-02-06T21:07:42.347Z,109.93
2019-02-06T21:10:24.503Z,108.37
2019-02-06T21:13:19.905Z,103.50
2019-02-06T21:17:02.083Z,108.80
2019-02-06T21:20:32.928Z,106.00
2019-02-06T21:23:08.735Z,101.27
2019-02-06T21:25:39.147Z,106.30
2019-02-06T21:28:14.194Z,117.53
2019-02-06T21:30:51.473Z,107.97
2019-02-06T21:33:33.203Z,126.87
2019-02-06T21:36:29.285Z,111.57
2019-02-06T21:39:26.752Z,101.87
2019-02-06T21:42:19.995Z,113.70
2019-02-06T21:45:11.183Z,114.57
2019-02-06T21:47:46.811Z,113.53
2019-02-06T21:50:36.669Z,105.83
2019-02-06T21:53:09.862Z,109.67
2019-02-06T21:56:10.574Z,98.50
2019-02-06T21:59:06.616Z,95.23
2019-02-06T22:01:49.884Z,99.93
2019-02-06T22:04:22.404Z,102.10
2019-02-06T22:06:58.052Z,106.67
2019-02-06T22:09:31.559Z,109.43
2019-02-06T22:12:01.688Z,96.70
2019-02-06T22:14:32.014Z,103.20
2019-02-06T22:17:02.795Z,95.40
2019-02-06T22:19:32.855Z,79.27
2019-02-06T22:22:03.018Z,83.00
2019-02-06T22:24:33.111Z,93.23
2019-02-06T22:27:03.170Z,96.33
2019-02-06T22:29:34.613Z,98.13
2019-02-06T22:32:04.997Z,125.47
2019-02-06T22:34:35.128Z,124.57
2019-02-06T22:37:05.491Z,126.80
2019-02-06T22:39:35.750Z,132.03
2019-02-06T22:42:05.926Z,124.60
2019-02-06T22:44:36.363Z,122.17
2019-02-06T22:47:06.451Z,109.73
2019-02-06T22:49:36.610Z,125.67
2019-02-06T22:52:06.658Z,113.33
2019-02-06T22:54:36.799Z,103.13
2019-02-06T22:57:06.957Z,108.40
2019-02-06T22:59:48.757Z,97.30
2019-02-06T23:02:19.179Z,89.37
2019-02-06T23:04:49.349Z,98.87
2019-02-06T23:07:19.565Z,83.20
2019-02-06T23:09:49.830Z,97.17
2019-02-06T23:12:19.966Z,99.83
2019-02-06T23:14:50.056Z,97.63
2019-02-06T23:17:20.329Z,73.20
2019-02-06T23:19:50.350Z,84.77
2019-02-06T23:22:20.412Z,96.40
2019-02-06T23:24:50.438Z,82.83
2019-02-06T23:27:20.571Z,96.10
2019-02-06T23:29:50.678Z,91.17
2019-02-06T23:32:20.891Z,80.07
2019-02-06T23:34:50.958Z,72.80
2019-02-06T23:37:21.357Z,69.00
2019-02-06T23:39:51.477Z,76.03
2019-02-06T23:42:41.805Z,80.87
2019-02-06T23:45:12.433Z,72.70
2019-02-06T23:47:42.897Z,72.33
2019-02-06T23:50:13.653Z,81.97
2019-02-06T23:52:44.125Z,74.70
2019-02-06T23:55:14.708Z,70.80
2019-02-06T23:57:44.756Z,74.20
